Trevose, Pennsylvania
Current Conditions -  °F | °C
As of 9:35 AM on Monday 26 Jan 2015 (Local Time) from KPNE Reporting Station
Haze Haze  
Wind Chill: 16°   Ceiling: 2300
Heat Index: 28°   Visibility: 3mi
Dew Point: 20°   Wind: 17mph
Humidity: 72%   Direction: 60°ENE
Pressure: 29.93"   Gusts: NA
Location:  40.1773°N, 74.9192°W
Report Text: KPNE 261435Z AUTO 06015KT 3SM HZ FEW013 BKN023 OVC041 M02/M07 A2993 RMK AO2 SNE31 P0000 T10221067 TSNO
Loading
Personal Weather Stations






























Interactive Weather Map New forecast layout! Learn more

10-Day Weather Forecast

Advertisements
Track Severe Weather on mobile